Time;durP1;ratioP1;P1;durP2;ratioP2;P2;SDS_P1;SDS_P2;PMS_P1;PMS_P2;Temp;Humidity;BMP_temperature;BMP_pressure;BME280_temperature;BME280_humidity;BME280_pressure;Samples;Min_cycle;Max_cycle;Signal;HPM_P1;HPM_P2
2024/01/11 00:00:49;;;;;;;;;;;-5.30;99.90;;;-7.04;100.00;98824.50;5061822;28;1435;-68
2024/01/11 00:03:16;;;;;;;;;;;-5.40;99.90;;;-6.99;100.00;98825.56;5062024;28;1395;-68
2024/01/11 00:05:43;;;;;;;;;;;-5.40;99.90;;;-7.03;100.00;98821.16;5059820;28;2036;-67
2024/01/11 00:08:11;;;;;;;;;;;-5.40;99.90;;;-7.05;100.00;98823.59;5062318;28;1431;-68
2024/01/11 00:10:37;;;;;;;;;;;-5.50;99.90;;;-7.10;100.00;98825.06;5060236;28;1507;-68
2024/01/11 00:13:04;;;;;;;;;;;-5.50;99.90;;;-7.05;100.00;98828.66;5039738;28;1462;-67
2024/01/11 00:15:31;;;;;;;;;;;-5.50;99.90;;;-7.04;100.00;98821.97;5044746;28;1396;-68
2024/01/11 00:17:58;;;;;;;;;;;-5.50;99.90;;;-7.05;100.00;98827.78;5058567;28;1972;-68
2024/01/11 00:20:26;;;;;;;;;;;-5.50;99.90;;;-7.18;100.00;98826.38;5061497;28;1352;-68
2024/01/11 00:22:53;;;;;;;;;;;-5.50;99.90;;;-7.28;100.00;98830.09;5043553;28;1444;-69
2024/01/11 00:25:20;;;;;;;;;;;-5.60;99.90;;;-7.28;100.00;98841.84;5061802;28;1242;-68
2024/01/11 00:27:47;;;;;;;;;;;-5.60;99.90;;;-7.28;100.00;98831.75;5060262;28;1975;-67
2024/01/11 00:30:14;;;;;;;;;;;-5.70;99.90;;;-7.26;100.00;98835.22;5060994;28;1517;-68
2024/01/11 00:32:40;;;;;;;;;;;-5.70;99.90;;;-7.22;100.00;98837.97;5057200;28;2604;-69
2024/01/11 00:35:08;;;;;;;;;;;-5.70;99.90;;;-7.20;100.00;98841.44;5059467;28;1331;-69
2024/01/11 00:37:34;;;;;;;;;;;-5.60;99.90;;;-7.15;100.00;98842.50;5058020;28;1981;-69
2024/01/11 00:40:01;;;;;;;;;;;-5.60;99.90;;;-7.15;100.00;98844.16;5021708;28;1388;-68
2024/01/11 00:42:28;;;;;;;;;;;-5.60;99.90;;;-7.21;100.00;98842.19;5059309;28;1802;-68
2024/01/11 00:44:58;;;;;;;;;;;-5.70;99.90;;;-7.20;100.00;98843.94;5042026;28;1425;-68
2024/01/11 00:47:24;;;;;;;;;;;-5.70;99.90;;;-7.27;100.00;98841.94;5059696;28;2657;-67
2024/01/11 00:49:52;;;;;;;;;;;-5.70;99.90;;;-7.28;100.00;98851.94;5041115;28;1542;-68
2024/01/11 00:52:19;;;;;;;;;;;-5.70;99.90;;;-7.37;100.00;98845.69;5042969;28;1386;-67
2024/01/11 00:54:45;;;;;;;;;;;-5.70;99.90;;;-7.31;100.00;98845.09;5057276;28;2623;-68
2024/01/11 00:57:12;;;;;;;;;;;-5.70;99.90;;;-7.29;100.00;98846.03;5059210;28;1910;-68
2024/01/11 00:59:42;;;;;;;;;;;-5.70;99.90;;;-7.29;100.00;98846.03;5057617;28;1423;-69
2024/01/11 01:02:09;;;;;;;;;;;-5.70;99.90;;;-7.32;100.00;98848.44;5059808;28;3348;-68
2024/01/11 01:04:39;;;;;;;;;;;-5.70;99.90;;;-7.32;100.00;98848.44;5057769;28;1322;-68
2024/01/11 01:07:05;;;;;;;;;;;-5.70;99.90;;;-7.29;100.00;98845.19;5043121;28;1368;-68
2024/01/11 01:09:32;;;;;;;;;;;-5.70;99.90;;;-7.37;100.00;98842.28;5065286;28;2396;-68
2024/01/11 01:11:59;;;;;;;;;;;-5.70;99.90;;;-7.36;100.00;98844.88;5044791;28;1465;-68
2024/01/11 01:14:26;;;;;;;;;;;-5.80;99.90;;;-7.45;100.00;98852.00;5062236;28;1348;-68
2024/01/11 01:16:53;;;;;;;;;;;-5.80;99.90;;;-7.36;100.00;98846.53;5049654;28;1965;-69
2024/01/11 01:19:20;;;;;;;;;;;-5.80;99.90;;;-7.36;100.00;98854.09;5060289;28;1346;-68
2024/01/11 01:21:47;;;;;;;;;;;-5.80;99.90;;;-7.40;100.00;98858.13;5058365;28;1428;-68
2024/01/11 01:24:13;;;;;;;;;;;-5.80;99.90;;;-7.47;100.00;98853.56;5059521;28;2190;-68
2024/01/11 01:26:41;;;;;;;;;;;-5.80;99.90;;;-7.36;100.00;98865.06;5044998;28;1445;-69
2024/01/11 01:29:08;;;;;;;;;;;-5.80;99.90;;;-7.32;100.00;98866.09;5060220;28;2697;-69
2024/01/11 01:31:37;;;;;;;;;;;-5.80;99.90;;;-7.31;100.00;98866.94;5063426;28;1345;-69
2024/01/11 01:34:04;;;;;;;;;;;-5.80;99.90;;;-7.34;100.00;98866.78;5063242;28;1343;-69
2024/01/11 01:36:33;;;;;;;;;;;-5.80;99.90;;;-7.31;100.00;98866.94;5044644;28;1294;-68
2024/01/11 01:39:00;;;;;;;;;;;-5.80;99.90;;;-7.24;100.00;98871.47;5061000;28;2864;-68
2024/01/11 01:41:26;;;;;;;;;;;-5.80;99.90;;;-7.27;100.00;98877.25;5061226;28;1135;-67
2024/01/11 01:43:53;;;;;;;;;;;-5.80;99.90;;;-7.25;100.00;98877.31;5051000;28;1367;-68
2024/01/11 01:46:23;;;;;;;;;;;-5.80;99.90;;;-7.31;100.00;98879.56;5064217;28;1318;-68
2024/01/11 01:48:53;;;;;;;;;;;-5.70;99.90;;;-7.37;100.00;98872.53;5059264;28;1380;-67
2024/01/11 01:51:22;;;;;;;;;;;-5.70;99.90;;;-7.25;100.00;98874.78;5042153;28;3127;-68
2024/01/11 01:53:50;;;;;;;;;;;-5.80;99.90;;;-7.40;100.00;98874.91;5058263;28;2652;-68
2024/01/11 01:56:18;;;;;;;;;;;-5.80;99.90;;;-7.36;100.00;98879.34;5061816;28;1427;-70
2024/01/11 01:58:46;;;;;;;;;;;-5.80;99.90;;;-7.34;100.00;98885.31;5059433;28;1953;-68
2024/01/11 02:01:13;;;;;;;;;;;-5.80;99.90;;;-7.34;100.00;98890.38;5042465;28;1651;-67
2024/01/11 02:03:40;;;;;;;;;;;-5.80;99.90;;;-7.42;100.00;98889.09;5059963;28;1457;-68
2024/01/11 02:06:08;;;;;;;;;;;-5.80;99.90;;;-7.46;100.00;98890.59;5054683;28;2502;-68
2024/01/11 02:08:35;;;;;;;;;;;-5.80;99.90;;;-7.36;100.00;98896.97;5056794;28;1435;-68
2024/01/11 02:11:03;;;;;;;;;;;-5.80;99.90;;;-7.20;100.00;98896.94;5043504;28;1271;-67
2024/01/11 02:13:31;;;;;;;;;;;-5.80;99.90;;;-7.22;100.00;98895.13;5041458;28;1526;-68
2024/01/11 02:15:58;;;;;;;;;;;-5.80;99.90;;;-7.24;100.00;98892.53;5060553;28;1400;-68
2024/01/11 02:18:25;;;;;;;;;;;-5.70;99.90;;;-7.05;100.00;98894.28;5060457;28;1964;-68
2024/01/11 02:20:52;;;;;;;;;;;-5.70;99.90;;;-7.07;100.00;98893.34;5056244;28;2434;-68
2024/01/11 02:23:21;;;;;;;;;;;-5.60;99.90;;;-7.03;100.00;98889.31;5061706;28;1403;-68
2024/01/11 02:25:48;;;;;;;;;;;-5.50;99.90;;;-6.99;100.00;98896.22;5042107;28;1313;-68
2024/01/11 02:28:15;;;;;;;;;;;-5.50;99.90;;;-7.07;100.00;98900.03;5043351;28;1334;-69
2024/01/11 02:30:42;;;;;;;;;;;-5.50;99.90;;;-7.15;100.00;98892.97;5044599;28;1314;-68
2024/01/11 02:33:09;;;;;;;;;;;-5.50;99.90;;;-7.08;100.00;98884.03;5060212;28;1453;-66
2024/01/11 02:35:39;;;;;;;;;;;-5.50;99.90;;;-7.09;100.00;98891.53;5043509;28;3093;-68
2024/01/11 02:38:08;;;;;;;;;;;-5.60;99.90;;;-7.04;100.00;98888.44;5058264;28;2725;-68
2024/01/11 02:40:37;;;;;;;;;;;-5.50;99.90;;;-7.04;100.00;98888.44;5060407;28;1633;-67
2024/01/11 02:43:10;;;;;;;;;;;-5.50;99.90;;;-7.08;100.00;98879.00;5059313;28;1400;-68
2024/01/11 02:45:37;;;;;;;;;;;-5.50;99.90;;;-7.25;100.00;98875.69;5056301;28;1529;-68
2024/01/11 02:48:04;;;;;;;;;;;-5.60;99.90;;;-7.19;100.00;98877.59;5041217;28;1303;-67
2024/01/11 02:50:32;;;;;;;;;;;-5.60;99.90;;;-7.19;100.00;98870.91;5059663;28;2075;-68
2024/01/11 02:52:59;;;;;;;;;;;-5.60;99.90;;;-7.19;100.00;98870.91;5060581;28;1386;-68
2024/01/11 02:55:26;;;;;;;;;;;-5.70;99.90;;;-7.14;100.00;98871.13;5041922;28;2543;-69
2024/01/11 02:57:52;;;;;;;;;;;-5.60;99.90;;;-7.12;100.00;98863.63;5061911;28;1990;-68
2024/01/11 03:00:20;;;;;;;;;;;-5.60;99.90;;;-7.11;100.00;98865.38;5061478;28;1436;-67
2024/01/11 03:02:47;;;;;;;;;;;-5.60;99.90;;;-7.03;100.00;98866.59;5061353;28;1431;-69
2024/01/11 03:05:14;;;;;;;;;;;-5.50;99.90;;;-7.07;100.00;98858.03;5038882;28;1095;-68
2024/01/11 03:07:41;;;;;;;;;;;-5.50;99.90;;;-7.10;100.00;98857.88;5043044;28;1374;-68
2024/01/11 03:10:08;;;;;;;;;;;-5.50;99.90;;;-7.04;100.00;98854.78;5051649;28;2211;-68
2024/01/11 03:12:35;;;;;;;;;;;-5.50;99.90;;;-7.14;100.00;98855.97;5043216;28;1910;-68
2024/01/11 03:15:02;;;;;;;;;;;-5.50;99.90;;;-7.10;100.00;98859.53;5061215;28;1412;-68
2024/01/11 03:17:29;;;;;;;;;;;-5.60;99.90;;;-7.06;100.00;98857.22;5059830;28;1914;-68
2024/01/11 03:19:56;;;;;;;;;;;-5.60;99.90;;;-7.02;100.00;98858.25;5058413;28;1968;-68
2024/01/11 03:22:23;;;;;;;;;;;-5.50;99.90;;;-7.07;100.00;98862.19;5058732;28;3249;-69
2024/01/11 03:24:50;;;;;;;;;;;-5.50;99.90;;;-7.05;100.00;98856.41;5057659;28;1396;-68
2024/01/11 03:27:17;;;;;;;;;;;-5.50;99.90;;;-6.96;100.00;98858.50;5058290;28;2730;-68
2024/01/11 03:29:44;;;;;;;;;;;-5.40;99.90;;;-6.88;100.00;98858.88;5043516;28;1498;-68
2024/01/11 03:32:13;;;;;;;;;;;-5.40;99.90;;;-6.96;100.00;98864.41;5059507;28;1384;-67
2024/01/11 03:34:41;;;;;;;;;;;-5.40;99.90;;;-7.06;100.00;98866.47;5061515;28;1375;-67
2024/01/11 03:37:11;;;;;;;;;;;-5.50;99.90;;;-7.17;100.00;98866.78;5059486;28;2227;-68
2024/01/11 03:39:37;;;;;;;;;;;-5.60;99.90;;;-7.03;100.00;98859.03;5041893;28;1977;-69
2024/01/11 03:42:04;;;;;;;;;;;-5.60;99.90;;;-7.01;100.00;98858.28;5055383;28;1383;-69
2024/01/11 03:44:31;;;;;;;;;;;-5.60;99.90;;;-7.19;100.00;98863.34;5040869;28;1473;-67
2024/01/11 03:46:58;;;;;;;;;;;-5.60;99.90;;;-7.19;100.00;98859.94;5059728;28;1429;-69
2024/01/11 03:49:25;;;;;;;;;;;-5.60;99.90;;;-7.12;100.00;98854.41;5059420;28;2032;-67
2024/01/11 03:51:52;;;;;;;;;;;-5.70;99.90;;;-7.02;100.00;98856.59;5058520;28;1305;-68
2024/01/11 03:54:19;;;;;;;;;;;-5.60;99.90;;;-7.02;100.00;98855.72;5056919;28;1544;-66
2024/01/11 03:56:49;;;;;;;;;;;-5.60;99.90;;;-7.01;100.00;98860.81;5058547;28;1364;-68
2024/01/11 03:59:16;;;;;;;;;;;-5.50;99.90;;;-6.99;100.00;98855.84;5040248;28;1910;-68
2024/01/11 04:01:43;;;;;;;;;;;-5.50;99.90;;;-6.96;100.00;98854.31;5056459;28;1278;-67
2024/01/11 04:04:10;;;;;;;;;;;-5.50;99.90;;;-6.89;100.00;98852.09;5042178;28;3159;-68
2024/01/11 04:06:37;;;;;;;;;;;-5.50;99.90;;;-6.89;100.00;98855.47;5057706;28;1357;-69
2024/01/11 04:09:04;;;;;;;;;;;-5.50;99.90;;;-6.82;100.00;98849.06;5058473;28;1953;-68
2024/01/11 04:11:31;;;;;;;;;;;-5.40;99.90;;;-6.77;100.00;98848.50;5056287;28;1259;-69
2024/01/11 04:13:57;;;;;;;;;;;-5.40;99.90;;;-6.76;100.00;98847.69;5059017;28;1730;-68
2024/01/11 04:16:24;;;;;;;;;;;-5.30;99.90;;;-6.78;100.00;98851.78;5060874;28;1391;-68
2024/01/11 04:18:51;;;;;;;;;;;-5.30;99.90;;;-6.89;100.00;98839.47;5050918;28;2436;-69
2024/01/11 04:21:29;;;;;;;;;;;-5.30;99.90;;;-6.95;100.00;98842.59;5053356;28;1375;-68
2024/01/11 04:23:57;;;;;;;;;;;-5.30;99.90;;;-6.99;100.00;98848.28;5056916;28;1419;-68
2024/01/11 04:26:23;;;;;;;;;;;-5.40;99.90;;;-7.04;100.00;98852.25;5042829;28;1380;-68
2024/01/11 04:28:51;;;;;;;;;;;-5.50;99.90;;;-7.08;100.00;98850.38;5055179;28;1417;-68
2024/01/11 04:31:18;;;;;;;;;;;-5.50;99.90;;;-7.24;100.00;98848.78;5058084;28;1361;-67
2024/01/11 04:33:46;;;;;;;;;;;-5.60;99.90;;;-7.16;100.00;98845.84;5055531;28;2237;-67
2024/01/11 04:36:13;;;;;;;;;;;-5.60;99.90;;;-7.14;100.00;98853.47;5056467;28;1341;-66
2024/01/11 04:38:40;;;;;;;;;;;-5.60;99.90;;;-7.11;100.00;98852.75;5057376;28;1981;-68
2024/01/11 04:41:08;;;;;;;;;;;-5.60;99.90;;;-7.01;100.00;98845.69;5055922;28;1634;-68
2024/01/11 04:43:39;;;;;;;;;;;-5.60;99.90;;;-7.03;100.00;98848.94;5057705;28;1347;-66
2024/01/11 04:46:20;;;;;;;;;;;-5.50;99.90;;;-7.08;100.00;98850.38;5055427;28;3276;-68
2024/01/11 04:48:51;;;;;;;;;;;-5.50;99.90;;;-7.25;100.00;98855.50;5056994;28;1084;-68
2024/01/11 04:51:18;;;;;;;;;;;;;;;-7.33;100.00;98864.34;5060949;28;1384;-68
2024/01/11 04:53:46;;;;;;;;;;;-5.70;99.90;;;-7.31;100.00;98865.28;5056804;28;2638;-68
2024/01/11 04:56:16;;;;;;;;;;;-5.70;99.90;;;-7.16;100.00;98873.59;5061078;28;1299;-68
2024/01/11 04:58:44;;;;;;;;;;;-5.70;99.90;;;-7.10;100.00;98872.16;5038352;28;1975;-68
2024/01/11 05:01:15;;;;;;;;;;;-5.60;99.90;;;-7.05;100.00;98871.56;5057975;28;1441;-68
2024/01/11 05:03:43;;;;;;;;;;;-5.60;99.90;;;-7.13;100.00;98867.81;5055416;28;1296;-68
2024/01/11 05:06:16;;;;;;;;;;;-5.60;99.90;;;-7.09;100.00;98863.78;5054253;28;1455;-69
2024/01/11 05:08:44;;;;;;;;;;;-5.60;99.90;;;-7.07;100.00;98872.28;5041660;28;2504;-68
2024/01/11 05:11:23;;;;;;;;;;;-5.50;99.90;;;-7.07;100.00;98867.22;5056492;28;1674;-68
2024/01/11 05:13:51;;;;;;;;;;;-5.60;99.90;;;-7.06;100.00;98866.47;5020624;28;1395;-67
2024/01/11 05:16:21;;;;;;;;;;;-5.50;99.90;;;-7.01;100.00;98872.59;5058904;28;1329;-68
2024/01/11 05:18:48;;;;;;;;;;;-5.50;99.90;;;-7.05;100.00;98873.22;5055938;28;1988;-69
2024/01/11 05:21:15;;;;;;;;;;;-5.60;99.90;;;-7.10;100.00;98879.72;5054808;28;1278;-67
2024/01/11 05:23:42;;;;;;;;;;;-5.50;99.90;;;-7.04;100.00;98877.50;5041696;28;2077;-68
2024/01/11 05:26:09;;;;;;;;;;;-5.50;99.90;;;-7.03;100.00;98872.50;5058362;28;1290;-69
2024/01/11 05:28:38;;;;;;;;;;;-5.60;99.90;;;-7.05;100.00;98883.31;5057562;28;1377;-69
2024/01/11 05:31:07;;;;;;;;;;;-5.60;99.90;;;-7.22;100.00;98885.03;5059091;28;1700;-68
2024/01/11 05:33:34;;;;;;;;;;;-5.60;99.90;;;-7.08;100.00;98883.19;5059961;28;1650;-68
2024/01/11 05:36:02;;;;;;;;;;;-5.60;99.90;;;-6.99;100.00;98881.94;5055944;28;3279;-67
2024/01/11 05:38:29;;;;;;;;;;;-5.60;99.90;;;-7.04;100.00;98880.00;5054097;28;1987;-68
2024/01/11 05:40:56;;;;;;;;;;;-5.60;99.90;;;-7.07;100.00;98878.22;5058418;28;1432;-68
2024/01/11 05:43:23;;;;;;;;;;;-5.60;99.90;;;-7.06;100.00;98884.13;5059157;28;1267;-68
2024/01/11 05:45:50;;;;;;;;;;;-5.60;99.90;;;-7.21;100.00;98884.25;5057205;28;1415;-67
2024/01/11 05:48:17;;;;;;;;;;;-5.70;99.90;;;-7.39;100.00;98887.63;5060493;28;1365;-68
2024/01/11 05:50:45;;;;;;;;;;;-5.70;99.90;;;-7.48;100.00;98892.22;5026384;28;2685;-66
2024/01/11 05:53:12;;;;;;;;;;;-5.80;99.90;;;-7.55;100.00;98889.28;5041155;28;1468;-68
2024/01/11 05:55:40;;;;;;;;;;;-5.90;99.90;;;-7.45;100.00;98891.50;5059998;28;1431;-68
2024/01/11 05:58:06;;;;;;;;;;;-5.80;99.90;;;-7.47;100.00;98903.16;5062499;28;1906;-67
2024/01/11 06:00:34;;;;;;;;;;;-5.90;99.90;;;-7.50;100.00;98906.41;5061498;28;1422;-68
2024/01/11 06:03:01;;;;;;;;;;;-5.90;99.90;;;-7.43;100.00;98905.03;5058965;28;1633;-67
2024/01/11 06:05:28;;;;;;;;;;;-5.90;99.90;;;-7.45;100.00;98902.44;5059487;28;2298;-68
2024/01/11 06:08:27;;;;;;;;;;;-5.90;99.90;;;-7.44;100.00;98911.72;5052947;28;1621;-67
2024/01/11 06:11:05;;;;;;;;;;;-5.90;99.90;;;-7.27;100.00;98906.66;5054432;28;1681;-68
2024/01/11 06:14:00;;;;;;;;;;;-5.90;99.90;;;-7.30;100.00;98914.06;5061360;28;1386;-68
2024/01/11 06:16:49;;;;;;;;;;;-5.90;99.90;;;-7.40;100.00;98907.72;5058218;28;1653;-68
2024/01/11 06:19:40;;;;;;;;;;;-5.90;99.90;;;-7.32;100.00;98914.00;5061282;28;3307;-70
2024/01/11 06:22:13;;;;;;;;;;;-5.80;99.90;;;-7.18;100.00;98915.53;5048507;28;1098;-68
2024/01/11 06:24:44;;;;;;;;;;;-5.70;99.90;;;-7.24;100.00;98920.28;5063062;28;1136;-69
2024/01/11 06:27:47;;;;;;;;;;;-5.80;99.90;;;-7.32;100.00;98914.00;5061745;28;1388;-67
2024/01/11 06:30:19;;;;;;;;;;;-5.80;99.90;;;-7.35;100.00;98913.84;5054766;28;1322;-68
2024/01/11 06:33:09;;;;;;;;;;;-5.80;99.90;;;-7.24;100.00;98921.94;5062544;28;1343;-67
2024/01/11 06:35:46;;;;;;;;;;;-5.80;99.90;;;-7.24;100.00;98909.31;5058411;28;2715;-68
2024/01/11 06:38:31;;;;;;;;;;;-5.70;99.90;;;-7.27;100.00;98924.31;5061174;28;1906;-68
2024/01/11 06:41:15;;;;;;;;;;;-5.70;99.90;;;-7.43;100.00;98928.59;5046062;28;1390;-68
2024/01/11 06:43:47;;;;;;;;;;;-5.80;99.90;;;-7.48;100.00;98939.22;5061814;28;1463;-68
2024/01/11 06:46:36;;;;;;;;;;;-5.80;99.90;;;-7.45;100.00;98941.94;5062487;28;1149;-68
2024/01/11 06:52:33;;;;;;;;;;;-5.90;99.90;;;-7.44;100.00;98957.13;5062622;28;1783;-68
2024/01/11 06:55:24;;;;;;;;;;;-5.90;99.90;;;-7.40;100.00;98968.25;5044774;28;1198;-68
2024/01/11 06:57:51;;;;;;;;;;;-5.90;99.90;;;-7.53;100.00;98973.44;5040202;28;1073;-68
2024/01/11 07:00:18;;;;;;;;;;;-5.90;99.90;;;-7.41;100.00;98976.56;5059137;28;1906;-68
2024/01/11 07:02:45;;;;;;;;;;;-5.90;99.90;;;-7.39;100.00;98982.56;5058869;28;1423;-68
2024/01/11 07:05:12;;;;;;;;;;;-5.90;99.90;;;-7.34;100.00;98987.84;5057198;28;1073;-68
2024/01/11 07:07:39;;;;;;;;;;;-5.90;99.90;;;-7.30;100.00;98994.78;5061245;28;1201;-69
2024/01/11 07:10:06;;;;;;;;;;;-5.90;99.90;;;-7.28;100.00;98994.06;5058764;28;1525;-68
2024/01/11 07:12:33;;;;;;;;;;;-5.80;99.90;;;-7.17;100.00;98992.09;5057327;28;1430;-68
2024/01/11 07:15:00;;;;;;;;;;;-5.70;99.90;;;-7.11;100.00;98982.31;5059873;28;1095;-68
2024/01/11 07:17:27;;;;;;;;;;;-5.70;99.90;;;-7.16;100.00;98994.72;5043684;28;3223;-68
2024/01/11 07:19:54;;;;;;;;;;;-5.70;99.90;;;-7.09;100.00;98997.50;5058286;28;1930;-67
2024/01/11 07:22:20;;;;;;;;;;;-5.60;99.90;;;-7.06;100.00;99001.06;5038921;28;1390;-68
2024/01/11 07:24:48;;;;;;;;;;;-5.60;99.90;;;-7.04;100.00;99001.16;5055909;28;1221;-68
2024/01/11 07:27:14;;;;;;;;;;;-5.60;99.90;;;-7.15;100.00;99000.63;5060136;28;1800;-69
2024/01/11 07:29:41;;;;;;;;;;;-5.60;99.90;;;-7.17;100.00;98998.00;5059484;28;2563;-68
2024/01/11 07:32:08;;;;;;;;;;;-5.60;99.90;;;-7.04;100.00;99002.00;5033357;28;1253;-68
2024/01/11 07:34:36;;;;;;;;;;;-5.60;99.90;;;-7.12;100.00;99007.47;5057706;28;1308;-68
2024/01/11 07:37:03;;;;;;;;;;;-5.60;99.90;;;-7.05;100.00;99012.88;5057214;28;1260;-68
2024/01/11 07:39:30;;;;;;;;;;;-5.60;99.90;;;-7.08;100.00;99009.34;5054947;28;2015;-69
2024/01/11 07:41:57;;;;;;;;;;;-5.60;99.90;;;-6.89;100.00;99011.97;5053728;28;1016;-68
2024/01/11 07:44:24;;;;;;;;;;;-5.50;99.90;;;-6.95;100.00;99004.13;5057944;28;2056;-68
2024/01/11 07:46:51;;;;;;;;;;;-5.50;99.90;;;-6.97;100.00;99009.09;5057955;28;1069;-69
2024/01/11 07:49:21;;;;;;;;;;;-5.50;99.90;;;-6.92;100.00;99011.84;5057390;28;2428;-66
2024/01/11 07:51:48;;;;;;;;;;;-5.50;99.90;;;-6.96;100.00;99008.28;5060136;28;2519;-68
2024/01/11 07:54:16;;;;;;;;;;;-5.50;99.90;;;-6.96;100.00;99013.34;5060429;28;1399;-67
2024/01/11 07:56:43;;;;;;;;;;;-5.40;99.90;;;-6.85;100.00;99016.41;5040754;28;1091;-68
2024/01/11 07:59:14;;;;;;;;;;;-5.40;99.90;;;-6.77;100.00;99012.59;5057242;28;1997;-66
2024/01/11 08:01:42;;;;;;;;;;;-5.40;99.90;;;-6.69;100.00;99007.06;5056328;28;1169;-67
2024/01/11 08:04:09;;;;;;;;;;;-5.30;99.90;;;-6.68;100.00;99014.72;5038526;28;1316;-68
2024/01/11 08:06:36;;;;;;;;;;;-5.30;99.90;;;-6.61;100.00;99016.75;5055990;28;3061;-68
2024/01/11 08:09:04;;;;;;;;;;;-5.30;99.90;;;-6.62;100.00;99019.19;5055491;28;1047;-68
2024/01/11 08:11:32;;;;;;;;;;;-5.20;99.90;;;-6.55;100.00;99019.53;5057214;28;1409;-69
2024/01/11 08:14:05;;;;;;;;;;;;;;;-6.47;100.00;99019.91;5037949;28;1588;-68
2024/01/11 08:16:32;;;;;;;;;;;-5.10;99.90;;;-6.43;100.00;99020.91;5038739;28;1655;-69
2024/01/11 08:19:00;;;;;;;;;;;-5.10;99.90;;;-6.39;100.00;99025.31;5059251;28;2139;-69
2024/01/11 08:21:28;;;;;;;;;;;-5.00;99.90;;;-6.38;100.00;99022.88;5061787;28;1085;-69
2024/01/11 08:23:57;;;;;;;;;;;-5.00;99.90;;;-6.33;100.00;99020.56;5041172;28;1376;-68
2024/01/11 08:26:29;;;;;;;;;;;-4.90;99.90;;;-6.32;100.00;99018.13;5060126;28;1458;-68
2024/01/11 08:28:57;;;;;;;;;;;-4.90;99.90;;;-6.37;100.00;99013.63;5058278;28;1224;-68
2024/01/11 08:31:24;;;;;;;;;;;-4.90;99.90;;;-6.26;100.00;99019.19;5059346;28;2012;-67
2024/01/11 08:33:51;;;;;;;;;;;-4.90;99.90;;;-6.24;100.00;99020.16;5056905;28;2706;-69
2024/01/11 08:36:18;;;;;;;;;;;-4.80;99.90;;;-6.17;100.00;99022.16;5058283;28;1213;-68
2024/01/11 08:38:46;;;;;;;;;;;-4.80;99.90;;;-6.10;100.00;99019.97;5051444;28;1906;-68
2024/01/11 08:41:13;;;;;;;;;;;-4.70;99.90;;;-6.10;100.00;99025.03;5044603;28;1164;-68
2024/01/11 08:43:40;;;;;;;;;;;-4.80;99.90;;;-6.05;100.00;99029.44;5054043;28;1335;-69
2024/01/11 08:46:07;;;;;;;;;;;-4.70;99.90;;;-6.05;100.00;99026.91;5056575;28;1014;-67
2024/01/11 08:48:33;;;;;;;;;;;-4.60;99.90;;;-6.09;100.00;99023.38;5044742;28;1006;-69
2024/01/11 08:51:01;;;;;;;;;;;-4.60;99.90;;;-5.99;100.00;99024.69;5055170;28;1113;-68
2024/01/11 08:53:28;;;;;;;;;;;-4.70;99.90;;;-5.90;100.00;99037.69;5057769;28;1498;-70
2024/01/11 08:55:55;;;;;;;;;;;-4.60;99.90;;;-5.93;100.00;99027.44;5051162;28;3656;-67
2024/01/11 08:58:25;;;;;;;;;;;-4.50;99.90;;;-5.88;100.00;99031.06;5042240;28;2760;-65
2024/01/11 09:00:52;;;;;;;;;;;-4.60;99.90;;;-5.89;100.00;99025.09;5056850;28;1910;-67
2024/01/11 09:03:19;;;;;;;;;;;-4.50;99.90;;;-5.81;100.00;99027.16;5057992;28;1327;-65
2024/01/11 09:05:46;;;;;;;;;;;-4.40;99.90;;;-5.81;100.00;99025.47;5058260;28;1205;-67
2024/01/11 09:08:13;;;;;;;;;;;-4.40;99.90;;;-5.77;100.00;99026.47;5023634;28;1245;-69
2024/01/11 09:10:41;;;;;;;;;;;-4.40;99.90;;;-5.71;100.00;99016.63;5056403;28;2008;-67
2024/01/11 09:13:08;;;;;;;;;;;-4.40;99.90;;;-5.65;100.00;99026.19;5056129;28;1778;-67
2024/01/11 09:15:38;;;;;;;;;;;-4.30;99.90;;;-5.64;100.00;99016.09;5055121;28;1193;-67
2024/01/11 09:18:05;;;;;;;;;;;-4.30;99.90;;;-5.65;100.00;99011.00;5052812;28;1280;-69
2024/01/11 09:20:32;;;;;;;;;;;-4.30;99.90;;;-5.64;100.00;99006.00;5058433;28;1902;-66
2024/01/11 09:22:59;;;;;;;;;;;-4.30;99.90;;;-5.62;100.00;99006.91;5057955;28;1587;-67
2024/01/11 09:25:25;;;;;;;;;;;-4.20;99.90;;;-5.59;100.00;99009.56;5059776;28;2424;-68
2024/01/11 09:27:52;;;;;;;;;;;-4.30;99.90;;;-5.45;100.00;99000.09;5043507;28;2493;-66
2024/01/11 09:30:19;;;;;;;;;;;-4.20;99.90;;;-5.39;100.00;98999.47;5061315;28;1485;-67
2024/01/11 09:32:47;;;;;;;;;;;-4.10;99.90;;;-5.28;100.00;98996.59;5062366;28;1370;-66
2024/01/11 09:35:14;;;;;;;;;;;-4.00;99.90;;;-5.14;100.00;98993.78;5045434;28;1661;-67
2024/01/11 09:37:46;;;;;;;;;;;-3.90;99.90;;;-5.00;100.00;99000.28;5059191;28;1619;-67
2024/01/11 09:40:13;;;;;;;;;;;-3.80;99.90;;;-4.85;100.00;99002.63;5042453;28;1902;-69
2024/01/11 09:42:40;;;;;;;;;;;-3.60;99.90;;;-4.80;100.00;99011.25;5061077;28;3324;-68
2024/01/11 09:45:08;;;;;;;;;;;-3.50;99.90;;;-4.67;100.00;99005.91;5044491;28;1753;-66
2024/01/11 09:47:36;;;;;;;;;;;-3.50;99.90;;;-4.59;100.00;99007.88;5060926;28;1391;-65
2024/01/11 09:50:03;;;;;;;;;;;-3.40;99.90;;;-4.57;100.00;99004.59;5041805;28;2815;-67
2024/01/11 09:52:32;;;;;;;;;;;-3.30;99.90;;;-4.61;100.00;99002.72;5055382;28;1474;-68
2024/01/11 09:55:00;;;;;;;;;;;-3.30;99.90;;;-4.53;100.00;99000.53;5061578;28;1361;-67
2024/01/11 09:57:32;;;;;;;;;;;-3.20;99.90;;;-4.60;100.00;99001.09;5057360;28;1440;-68
2024/01/11 10:00:03;;;;;;;;;;;-3.30;99.90;;;-4.53;100.00;98997.97;5057910;28;1910;-68
2024/01/11 10:02:30;;;;;;;;;;;-3.20;99.90;;;-4.50;100.00;99006.56;5059468;28;1331;-68
2024/01/11 10:04:57;;;;;;;;;;;-3.20;99.90;;;-4.30;100.00;99002.28;5039130;28;1352;-66
2024/01/11 10:07:24;;;;;;;;;;;-3.10;99.90;;;-4.27;100.00;99004.94;5064409;28;1297;-66
2024/01/11 10:09:53;;;;;;;;;;;-3.00;99.90;;;-4.32;100.00;99003.88;5043810;28;1383;-68
2024/01/11 10:12:24;;;;;;;;;;;-3.00;99.90;;;-4.20;100.00;99006.03;5044139;28;2277;-65
2024/01/11 10:14:52;;;;;;;;;;;-3.00;99.90;;;-4.13;100.00;99010.53;5059644;28;1421;-67
2024/01/11 10:17:19;;;;;;;;;;;-3.00;99.90;;;-4.20;100.00;99011.09;5061756;28;1468;-67
2024/01/11 10:19:52;;;;;;;;;;;-3.00;99.90;;;-4.16;100.00;99009.56;5058571;28;1906;-67
2024/01/11 10:22:20;;;;;;;;;;;-2.90;99.90;;;-4.07;100.00;99007.38;5041746;28;1315;-68
2024/01/11 10:24:50;;;;;;;;;;;-2.80;99.90;;;-4.04;100.00;98995.69;5055692;28;1504;-66
2024/01/11 10:27:17;;;;;;;;;;;-2.70;99.90;;;-4.01;100.00;98998.34;5058376;28;2798;-67
2024/01/11 10:29:47;;;;;;;;;;;-2.70;99.90;;;-3.88;100.00;98997.09;5060572;28;1468;-67
2024/01/11 10:32:13;;;;;;;;;;;-2.70;99.90;;;-3.89;100.00;98992.84;5058423;28;1091;-67
2024/01/11 10:34:41;;;;;;;;;;;-2.70;99.90;;;-3.75;100.00;99000.13;5061351;28;1247;-66
2024/01/11 10:37:10;;;;;;;;;;;-2.60;99.90;;;-3.87;100.00;99003.06;5058333;28;1367;-68
2024/01/11 10:39:38;;;;;;;;;;;-2.60;99.90;;;-3.67;100.00;99004.66;5060670;28;1973;-67
2024/01/11 10:42:07;;;;;;;;;;;-2.50;99.90;;;-3.67;100.00;98989.44;5042274;28;2199;-68
2024/01/11 10:44:35;;;;;;;;;;;-2.40;99.90;;;-3.52;100.00;98984.03;5056579;28;1259;-68
2024/01/11 10:47:07;;;;;;;;;;;-2.40;99.90;;;-3.58;100.00;98974.56;5057953;28;1130;-67
2024/01/11 10:49:38;;;;;;;;;;;-2.30;99.90;;;-3.47;100.00;98966.44;5061879;28;1036;-67
2024/01/11 10:52:06;;;;;;;;;;;-2.20;99.90;;;-3.36;100.00;98953.31;5057591;28;1157;-67
2024/01/11 10:54:34;;;;;;;;;;;-2.20;99.90;;;-3.30;100.00;98939.13;5056733;28;2376;-67
2024/01/11 10:57:04;;;;;;;;;;;-2.20;99.90;;;-3.31;100.00;98950.06;5031685;28;2837;-67
2024/01/11 10:59:32;;;;;;;;;;;-2.10;99.90;;;-3.01;100.00;98945.16;5037747;28;1902;-68
2024/01/11 11:02:06;;;;;;;;;;;-2.00;99.90;;;-3.08;100.00;98949.19;5039910;28;1264;-69
2024/01/11 11:04:35;;;;;;;;;;;-1.90;99.90;;;-3.07;100.00;98950.91;5059728;28;1476;-68
2024/01/11 11:07:03;;;;;;;;;;;-1.80;99.90;;;-2.98;100.00;98961.38;5041234;28;1856;-67
2024/01/11 11:09:31;;;;;;;;;;;-1.80;99.90;;;-2.83;100.00;98961.03;5057943;28;3308;-69
2024/01/11 11:11:58;;;;;;;;;;;-1.70;99.90;;;-2.98;100.00;98948.66;5052428;28;2680;-68
2024/01/11 11:14:25;;;;;;;;;;;-1.70;99.90;;;-2.88;100.00;98951.50;5060374;28;1326;-68
2024/01/11 11:16:52;;;;;;;;;;;-1.60;99.90;;;-2.74;100.00;98946.06;5059552;28;1816;-67
2024/01/11 11:19:20;;;;;;;;;;;-1.60;99.90;;;-2.58;100.00;98944.00;5057352;28;2582;-66
2024/01/11 11:21:48;;;;;;;;;;;-1.50;99.90;;;-2.56;100.00;98940.69;5060993;28;1086;-67
2024/01/11 11:24:19;;;;;;;;;;;-1.40;99.90;;;-2.39;100.00;98922.56;5059184;28;1311;-68
2024/01/11 11:26:46;;;;;;;;;;;-1.40;99.90;;;-2.56;100.00;98919.50;5056906;28;1037;-68